createdAt,value
2023-03-01T00:00:24.654Z,51.25
2023-03-01T00:01:24.620Z,52.68
2023-03-01T00:02:24.654Z,53.50
2023-03-01T00:03:24.628Z,50.44
2023-03-01T00:04:24.603Z,56.49
2023-03-01T00:05:24.622Z,51.96
2023-03-01T00:06:24.588Z,43.70
2023-03-01T00:07:24.592Z,50.34
2023-03-01T00:08:24.577Z,58.97
2023-03-01T00:09:24.566Z,55.65
2023-03-01T00:10:24.582Z,55.55
2023-03-01T00:11:24.560Z,69.24
2023-03-01T00:12:24.558Z,59.40
2023-03-01T00:13:24.539Z,59.79
2023-03-01T00:14:24.532Z,46.70
2023-03-01T00:15:24.556Z,55.15
2023-03-01T00:16:24.549Z,51.52
2023-03-01T00:17:24.503Z,47.63
2023-03-01T00:18:24.516Z,54.39
2023-03-01T00:19:24.494Z,45.42
2023-03-01T00:20:24.509Z,48.30
2023-03-01T00:21:24.487Z,57.25
2023-03-01T00:22:24.475Z,72.00
2023-03-01T00:23:24.462Z,64.71
2023-03-01T00:24:25.453Z,56.61
2023-03-01T00:25:24.475Z,64.86
2023-03-01T00:26:24.463Z,56.23
2023-03-01T00:27:24.439Z,51.70
2023-03-01T00:28:24.438Z,54.91
2023-03-01T00:29:24.422Z,52.51
2023-03-01T00:30:24.452Z,58.17
2023-03-01T00:31:24.414Z,58.25
2023-03-01T00:32:24.445Z,57.68
2023-03-01T00:33:24.408Z,52.25
2023-03-01T00:34:24.390Z,46.90
2023-03-01T00:35:24.421Z,51.71
2023-03-01T00:36:24.372Z,57.05
2023-03-01T00:37:24.371Z,56.07
2023-03-01T00:38:24.360Z,55.91
2023-03-01T00:39:24.355Z,49.74
2023-03-01T00:40:24.374Z,46.22
2023-03-01T00:41:24.343Z,53.38
2023-03-01T00:42:24.340Z,54.88
2023-03-01T00:43:24.326Z,54.27
2023-03-01T00:44:24.318Z,53.64
2023-03-01T00:45:24.354Z,47.79
2023-03-01T00:46:24.331Z,51.61
2023-03-01T00:47:24.309Z,59.24
2023-03-01T00:48:24.290Z,65.87
2023-03-01T00:49:24.296Z,59.52
2023-03-01T00:50:24.316Z,51.93
2023-03-01T00:51:24.279Z,45.73
2023-03-01T00:52:24.263Z,49.46
2023-03-01T00:53:24.256Z,47.09
2023-03-01T00:54:24.242Z,56.27
2023-03-01T00:55:24.236Z,63.94
2023-03-01T00:56:24.259Z,57.73
2023-03-01T00:57:24.227Z,55.66
2023-03-01T00:58:24.206Z,56.42
2023-03-01T00:59:24.202Z,62.12
2023-03-01T01:00:24.203Z,66.46
2023-03-01T01:01:24.271Z,57.06
2023-03-01T01:02:24.204Z,67.21
2023-03-01T01:03:24.181Z,52.17
2023-03-01T01:04:24.176Z,56.34
2023-03-01T01:05:24.168Z,57.66
2023-03-01T01:06:24.183Z,60.12
2023-03-01T01:07:24.165Z,54.30
2023-03-01T01:08:24.160Z,46.81
2023-03-01T01:09:24.152Z,51.59
2023-03-01T01:10:24.130Z,47.24
2023-03-01T01:11:24.151Z,52.24
2023-03-01T01:12:24.102Z,54.53
2023-03-01T01:13:25.106Z,55.02
2023-03-01T01:14:24.094Z,54.10
2023-03-01T01:15:24.090Z,50.75
2023-03-01T01:16:24.110Z,51.08
2023-03-01T01:17:24.083Z,50.64
2023-03-01T01:18:24.064Z,50.51
2023-03-01T01:19:24.053Z,54.04
2023-03-01T01:20:24.035Z,55.89
2023-03-01T01:21:25.092Z,66.33
2023-03-01T01:22:24.032Z,44.66
2023-03-01T01:23:24.025Z,50.25
2023-03-01T01:24:24.022Z,61.29
2023-03-01T01:25:24.016Z,51.21
2023-03-01T01:26:24.026Z,57.93
2023-03-01T01:27:24.000Z,52.99
2023-03-01T01:28:23.985Z,58.42
2023-03-01T01:29:23.991Z,49.30
2023-03-01T01:30:23.978Z,53.41
2023-03-01T01:31:24.077Z,66.08
2023-03-01T01:32:26.080Z,59.64
2023-03-01T01:33:23.952Z,51.14
2023-03-01T01:34:23.940Z,52.65
2023-03-01T01:35:23.965Z,52.44
2023-03-01T01:36:23.960Z,57.00
2023-03-01T01:37:23.937Z,61.57
2023-03-01T01:38:23.918Z,65.26
2023-03-01T01:39:23.910Z,54.16
2023-03-01T01:40:23.899Z,55.14
2023-03-01T01:41:23.943Z,48.33
2023-03-01T01:42:23.882Z,68.14
2023-03-01T01:43:23.880Z,63.09
2023-03-01T01:44:23.874Z,50.49
2023-03-01T01:45:23.865Z,50.48
2023-03-01T01:46:23.923Z,53.77
2023-03-01T01:47:23.853Z,54.00
2023-03-01T01:48:23.837Z,58.07
2023-03-01T01:49:23.835Z,48.71
2023-03-01T01:50:23.827Z,47.09
2023-03-01T01:51:23.827Z,54.35
2023-03-01T01:52:23.832Z,56.99
2023-03-01T01:53:23.803Z,53.17
2023-03-01T01:54:23.805Z,54.54
2023-03-01T01:55:23.789Z,55.43
2023-03-01T01:56:23.791Z,48.47
2023-03-01T01:57:23.805Z,47.11
2023-03-01T01:58:23.762Z,57.26
2023-03-01T01:59:23.760Z,56.61
2023-03-01T02:00:23.762Z,61.06
2023-03-01T02:01:23.754Z,64.37
2023-03-01T02:02:23.907Z,47.02
2023-03-01T02:03:23.852Z,49.88
2023-03-01T02:04:23.725Z,58.29
2023-03-01T02:05:23.716Z,58.90
2023-03-01T02:06:23.709Z,55.37
2023-03-01T02:07:23.747Z,51.38
2023-03-01T02:08:23.694Z,53.66
2023-03-01T02:09:23.683Z,51.63
2023-03-01T02:10:23.681Z,48.53
2023-03-01T02:11:23.670Z,55.78
2023-03-01T02:12:23.685Z,57.12
2023-03-01T02:13:23.661Z,49.13
2023-03-01T02:14:23.642Z,47.48
2023-03-01T02:15:23.639Z,48.79
2023-03-01T02:16:23.679Z,54.82
2023-03-01T02:17:23.656Z,53.88
2023-03-01T02:18:23.624Z,52.40
2023-03-01T02:19:23.617Z,60.00
2023-03-01T02:20:23.607Z,64.36
2023-03-01T02:21:23.598Z,55.12
2023-03-01T02:22:23.656Z,62.12
2023-03-01T02:23:23.593Z,56.95
2023-03-01T02:24:23.574Z,55.48
2023-03-01T02:25:23.568Z,54.56
2023-03-01T02:26:23.561Z,50.53
2023-03-01T02:27:23.608Z,49.14
2023-03-01T02:28:23.548Z,56.17
2023-03-01T02:29:23.540Z,56.60
2023-03-01T02:30:23.522Z,57.91
2023-03-01T02:31:23.604Z,56.00
2023-03-01T02:32:23.550Z,50.37
2023-03-01T02:33:23.508Z,46.04
2023-03-01T02:34:23.504Z,61.68
2023-03-01T02:35:23.539Z,58.43
2023-03-01T02:36:23.485Z,58.56
2023-03-01T02:37:23.514Z,48.45
2023-03-01T02:38:23.477Z,50.73
2023-03-01T02:39:23.465Z,47.50
2023-03-01T02:40:23.456Z,52.15
2023-03-01T02:41:23.445Z,57.25
2023-03-01T02:42:25.529Z,60.97
2023-03-01T02:43:23.431Z,55.71
2023-03-01T02:44:23.426Z,54.44
2023-03-01T02:45:23.422Z,54.89
2023-03-01T02:46:23.455Z,56.27
2023-03-01T02:47:23.415Z,58.43
2023-03-01T02:48:23.429Z,54.16
2023-03-01T02:49:23.388Z,49.82
2023-03-01T02:50:23.384Z,52.59
2023-03-01T02:51:23.378Z,50.27
2023-03-01T02:52:23.389Z,56.43
2023-03-01T02:53:23.408Z,58.23
2023-03-01T02:54:23.362Z,62.03
2023-03-01T02:55:23.350Z,66.75
2023-03-01T02:56:23.339Z,59.53
2023-03-01T02:57:23.337Z,56.79
2023-03-01T02:58:23.382Z,48.20
2023-03-01T02:59:23.328Z,54.22
2023-03-01T03:00:23.322Z,64.05
2023-03-01T03:01:23.309Z,66.10
2023-03-01T03:02:23.297Z,57.11
2023-03-01T03:03:23.350Z,59.64
2023-03-01T03:04:23.280Z,47.16
2023-03-01T03:05:23.270Z,49.86
2023-03-01T03:06:23.276Z,61.29
2023-03-01T03:07:23.270Z,56.77
2023-03-01T03:08:23.295Z,61.16
2023-03-01T03:09:23.248Z,57.03
2023-03-01T03:10:23.247Z,56.26
2023-03-01T03:11:23.230Z,54.78
2023-03-01T03:12:23.223Z,53.90
2023-03-01T03:13:23.286Z,54.04
2023-03-01T03:14:23.208Z,55.58
2023-03-01T03:15:23.203Z,47.95
2023-03-01T03:16:23.272Z,51.71
2023-03-01T03:17:23.192Z,61.96
2023-03-01T03:18:23.212Z,52.80
2023-03-01T03:19:23.184Z,54.38
2023-03-01T03:20:23.173Z,52.84
2023-03-01T03:21:23.161Z,53.38
2023-03-01T03:22:23.151Z,57.47
2023-03-01T03:23:23.177Z,54.68
2023-03-01T03:24:23.146Z,59.18
2023-03-01T03:25:23.142Z,54.57
2023-03-01T03:26:23.117Z,53.27
2023-03-01T03:27:23.103Z,60.84
2023-03-01T03:28:23.129Z,61.16
2023-03-01T03:29:23.108Z,66.50
2023-03-01T03:30:23.096Z,58.38
2023-03-01T03:31:23.131Z,58.34
2023-03-01T03:32:23.103Z,58.76
2023-03-01T03:33:23.099Z,54.68
2023-03-01T03:34:23.062Z,58.57
2023-03-01T03:35:23.051Z,60.16
2023-03-01T03:36:23.043Z,55.28
2023-03-01T03:37:23.039Z,53.31
2023-03-01T03:38:23.232Z,59.52
2023-03-01T03:39:23.021Z,63.64
2023-03-01T03:40:23.015Z,58.32
2023-03-01T03:41:23.002Z,55.59
2023-03-01T03:42:23.002Z,58.48
2023-03-01T03:43:23.022Z,54.16
2023-03-01T03:44:22.987Z,60.54
2023-03-01T03:45:22.983Z,53.22
2023-03-01T03:46:22.976Z,57.06
2023-03-01T03:47:22.965Z,60.49
2023-03-01T03:48:22.986Z,66.81
2023-03-01T03:49:22.950Z,61.09
2023-03-01T03:50:22.938Z,51.13
2023-03-01T03:51:22.953Z,58.27
2023-03-01T03:52:22.926Z,57.35
2023-03-01T03:53:22.995Z,56.72
2023-03-01T03:54:22.908Z,63.32
2023-03-01T03:55:22.916Z,57.67
2023-03-01T03:56:22.889Z,55.62
2023-03-01T03:57:22.891Z,48.41
2023-03-01T03:58:22.915Z,63.10
2023-03-01T03:59:22.870Z,60.51
2023-03-01T04:00:22.861Z,59.34
2023-03-01T04:01:22.882Z,59.81
2023-03-01T04:02:22.943Z,54.88
2023-03-01T04:03:22.843Z,56.69
2023-03-01T04:04:22.866Z,51.71
2023-03-01T04:05:22.827Z,55.28
2023-03-01T04:06:22.823Z,66.11
2023-03-01T04:07:22.812Z,58.59
2023-03-01T04:08:22.805Z,57.55
2023-03-01T04:09:22.838Z,65.38
2023-03-01T04:10:22.779Z,62.55
2023-03-01T04:11:22.786Z,58.28
2023-03-01T04:12:22.777Z,59.24
2023-03-01T04:13:22.770Z,59.89
2023-03-01T04:14:22.789Z,64.01
2023-03-01T04:15:22.753Z,61.25
2023-03-01T04:16:22.796Z,59.30
2023-03-01T04:17:22.740Z,59.88
2023-03-01T04:18:22.731Z,59.66
2023-03-01T04:19:22.754Z,65.89
2023-03-01T04:20:22.715Z,65.87
2023-03-01T04:21:22.720Z,62.99
2023-03-01T04:22:22.699Z,60.87
2023-03-01T04:23:22.727Z,61.14
2023-03-01T04:24:22.718Z,60.34
2023-03-01T04:25:22.672Z,57.69
2023-03-01T04:26:22.669Z,58.58
2023-03-01T04:27:22.670Z,59.94
2023-03-01T04:28:22.659Z,60.93
2023-03-01T04:29:22.676Z,64.55
2023-03-01T04:30:22.645Z,59.95
2023-03-01T04:31:22.881Z,61.83
2023-03-01T04:32:22.668Z,58.26
2023-03-01T04:33:22.636Z,62.52
2023-03-01T04:34:22.642Z,65.16
2023-03-01T04:35:22.724Z,63.31
2023-03-01T04:36:22.811Z,59.49
2023-03-01T04:37:22.596Z,62.17
2023-03-01T04:38:22.586Z,62.12
2023-03-01T04:39:22.611Z,63.23
2023-03-01T04:40:22.582Z,62.54
2023-03-01T04:41:22.581Z,64.55
2023-03-01T04:42:22.569Z,58.04
2023-03-01T04:43:22.561Z,62.51
2023-03-01T04:44:22.584Z,64.96
2023-03-01T04:45:22.537Z,63.71
2023-03-01T04:46:22.612Z,59.58
2023-03-01T04:47:22.529Z,61.49
2023-03-01T04:48:22.523Z,63.14
2023-03-01T04:49:22.539Z,60.26
2023-03-01T04:50:22.532Z,62.03
2023-03-01T04:51:22.501Z,64.71
2023-03-01T04:52:22.490Z,62.81
2023-03-01T04:53:22.484Z,61.55
2023-03-01T04:54:22.522Z,59.93
2023-03-01T04:55:22.464Z,64.80
2023-03-01T04:56:22.458Z,62.17
2023-03-01T04:57:22.450Z,62.48
2023-03-01T04:58:22.467Z,62.84
2023-03-01T04:59:22.459Z,62.71
2023-03-01T05:00:22.426Z,60.93
2023-03-01T05:01:22.425Z,60.98
2023-03-01T05:02:22.439Z,63.52
2023-03-01T05:03:22.411Z,59.00
2023-03-01T05:04:22.469Z,62.11
2023-03-01T05:05:22.399Z,62.86
2023-03-01T05:06:22.394Z,62.11
2023-03-01T05:07:22.388Z,62.04
2023-03-01T05:08:22.392Z,64.69
2023-03-01T05:09:22.395Z,61.38
2023-03-01T05:10:22.358Z,62.54
2023-03-01T05:11:22.355Z,61.06
2023-03-01T05:12:22.340Z,63.39
2023-03-01T05:13:22.340Z,60.36
2023-03-01T05:14:22.356Z,64.13
2023-03-01T05:15:22.321Z,62.68
2023-03-01T05:16:22.322Z,62.51
2023-03-01T05:17:22.306Z,64.73
2023-03-01T05:18:22.297Z,64.83
2023-03-01T05:19:22.321Z,64.82
2023-03-01T05:20:22.285Z,62.97
2023-03-01T05:21:22.279Z,66.10
2023-03-01T05:22:22.267Z,64.18
2023-03-01T05:23:22.258Z,64.23
2023-03-01T05:24:22.278Z,65.22
2023-03-01T05:25:22.281Z,63.75
2023-03-01T05:26:28.977Z,62.41
2023-03-01T05:27:24.236Z,64.16
2023-03-01T05:28:22.230Z,70.64
2023-03-01T05:29:22.250Z,62.80
2023-03-01T05:30:22.213Z,66.67
2023-03-01T05:31:22.246Z,64.62
2023-03-01T05:32:22.205Z,66.29
2023-03-01T05:33:22.191Z,68.56
2023-03-01T05:34:22.205Z,63.65
2023-03-01T05:35:22.225Z,60.70
2023-03-01T05:36:22.184Z,64.61
2023-03-01T05:37:22.193Z,69.22
2023-03-01T05:38:22.171Z,67.17
2023-03-01T05:39:22.171Z,66.39
2023-03-01T05:40:22.140Z,65.99
2023-03-01T05:41:22.134Z,69.86
2023-03-01T05:42:22.130Z,67.84
2023-03-01T05:43:22.117Z,66.10
2023-03-01T05:44:22.161Z,64.39
2023-03-01T05:45:22.100Z,66.41
2023-03-01T05:46:22.136Z,65.58
2023-03-01T05:47:22.093Z,63.30
2023-03-01T05:48:22.092Z,67.43
2023-03-01T05:49:22.113Z,69.06
2023-03-01T05:50:22.063Z,68.12
2023-03-01T05:51:22.058Z,65.22
2023-03-01T05:52:22.055Z,68.74
2023-03-01T05:53:22.059Z,70.59
2023-03-01T05:54:22.068Z,65.22
2023-03-01T05:55:22.046Z,65.61
2023-03-01T05:56:22.025Z,65.18
2023-03-01T05:57:22.019Z,66.90
2023-03-01T05:58:22.011Z,64.84
2023-03-01T05:59:22.030Z,64.07
2023-03-01T06:00:21.996Z,66.09
2023-03-01T06:01:21.986Z,64.88
2023-03-01T06:02:22.002Z,68.52
2023-03-01T06:03:21.976Z,68.07
2023-03-01T06:04:22.042Z,65.89
2023-03-01T06:05:21.972Z,65.08
2023-03-01T06:06:21.964Z,64.36
2023-03-01T06:07:21.941Z,66.74
2023-03-01T06:08:21.946Z,63.06
2023-03-01T06:09:21.953Z,69.22
2023-03-01T06:10:21.936Z,68.54
2023-03-01T06:11:21.925Z,67.20
2023-03-01T06:12:21.931Z,68.70
2023-03-01T06:13:21.912Z,66.38
2023-03-01T06:14:21.962Z,64.36
2023-03-01T06:15:21.890Z,63.46
2023-03-01T06:16:21.878Z,67.61
2023-03-01T06:17:22.880Z,62.62
2023-03-01T06:18:21.865Z,66.49
2023-03-01T06:19:21.905Z,65.26
2023-03-01T06:20:21.860Z,61.62
2023-03-01T06:21:21.843Z,64.96
2023-03-01T06:22:21.849Z,62.72
2023-03-01T06:23:21.826Z,64.25
2023-03-01T06:24:21.829Z,65.48
2023-03-01T06:25:21.849Z,61.43
2023-03-01T06:26:21.818Z,66.87
2023-03-01T06:27:21.806Z,63.20
2023-03-01T06:28:21.803Z,63.96
2023-03-01T06:29:21.794Z,65.43
2023-03-01T06:30:21.823Z,64.34
2023-03-01T06:31:21.786Z,66.32
2023-03-01T06:32:21.817Z,67.34
2023-03-01T06:33:21.758Z,65.80
2023-03-01T06:34:21.783Z,68.35
2023-03-01T06:35:21.819Z,65.95
2023-03-01T06:36:21.741Z,63.96
2023-03-01T06:37:21.741Z,64.57
2023-03-01T06:38:21.724Z,64.33
2023-03-01T06:39:21.713Z,64.10
2023-03-01T06:40:21.737Z,63.95
2023-03-01T06:41:21.711Z,64.38
2023-03-01T06:42:21.689Z,66.00
2023-03-01T06:43:21.693Z,66.30
2023-03-01T06:44:21.681Z,66.49
2023-03-01T06:45:21.691Z,68.19
2023-03-01T06:46:21.699Z,67.24
2023-03-01T06:47:21.666Z,65.76
2023-03-01T06:48:21.665Z,69.59
2023-03-01T06:49:21.649Z,65.95
2023-03-01T06:50:21.736Z,68.88
2023-03-01T06:51:21.641Z,67.98
2023-03-01T06:52:21.626Z,68.02
2023-03-01T06:53:21.620Z,64.86
2023-03-01T06:54:21.610Z,67.66
2023-03-01T06:55:21.629Z,68.39
2023-03-01T06:56:21.596Z,64.98
2023-03-01T06:57:21.581Z,65.18
2023-03-01T06:58:21.587Z,65.20
2023-03-01T06:59:21.570Z,65.31
2023-03-01T07:00:21.590Z,63.62
2023-03-01T07:01:21.695Z,61.78
2023-03-01T07:02:21.549Z,63.88
2023-03-01T07:03:21.540Z,67.41
2023-03-01T07:04:21.532Z,65.76
2023-03-01T07:05:21.556Z,63.15
2023-03-01T07:06:21.527Z,60.45
2023-03-01T07:07:21.504Z,63.01
2023-03-01T07:08:21.508Z,65.56
2023-03-01T07:09:21.497Z,63.56
2023-03-01T07:10:22.468Z,62.98
2023-03-01T07:11:21.484Z,65.86
2023-03-01T07:12:21.476Z,66.69
2023-03-01T07:13:21.469Z,63.45
2023-03-01T07:14:21.514Z,64.91
2023-03-01T07:15:21.498Z,65.72
2023-03-01T07:16:21.530Z,63.08
2023-03-01T07:17:21.467Z,64.70
2023-03-01T07:18:21.462Z,62.57
2023-03-01T07:19:21.438Z,63.80
2023-03-01T07:20:21.456Z,63.72
2023-03-01T07:21:21.415Z,63.97
2023-03-01T07:22:21.409Z,63.22
2023-03-01T07:23:21.415Z,60.39
2023-03-01T07:24:21.385Z,64.14
2023-03-01T07:25:21.434Z,66.69
2023-03-01T07:26:21.389Z,63.92
2023-03-01T07:27:21.370Z,67.04
2023-03-01T07:28:21.359Z,66.42
2023-03-01T07:29:21.353Z,63.07
2023-03-01T07:30:21.368Z,64.95
2023-03-01T07:31:21.338Z,62.04
2023-03-01T07:32:21.402Z,64.41
2023-03-01T07:33:21.371Z,63.23
2023-03-01T07:34:21.312Z,63.40
2023-03-01T07:35:21.329Z,61.05
2023-03-01T07:36:21.290Z,64.83
2023-03-01T07:37:21.292Z,63.29
2023-03-01T07:38:21.280Z,63.45
2023-03-01T07:39:21.278Z,63.53
2023-03-01T07:40:21.307Z,62.72
2023-03-01T07:41:21.265Z,64.43
2023-03-01T07:42:21.249Z,62.99
2023-03-01T07:43:21.242Z,65.74
2023-03-01T07:44:21.242Z,65.61
2023-03-01T07:45:21.396Z,57.34
2023-03-01T07:46:21.220Z,62.58
2023-03-01T07:47:21.203Z,63.30
2023-03-01T07:48:21.210Z,62.41
2023-03-01T07:49:21.201Z,60.94
2023-03-01T07:50:21.213Z,63.98
2023-03-01T07:51:22.162Z,59.88
2023-03-01T07:52:22.167Z,64.06
2023-03-01T07:53:21.161Z,64.53
2023-03-01T07:54:21.151Z,64.20
2023-03-01T07:55:21.166Z,63.13
2023-03-01T07:56:21.136Z,64.52
2023-03-01T07:57:21.137Z,65.88
2023-03-01T07:58:21.127Z,60.15
2023-03-01T07:59:21.119Z,62.96
2023-03-01T08:00:21.134Z,61.16
2023-03-01T08:01:21.089Z,61.13
2023-03-01T08:02:22.107Z,65.94
2023-03-01T08:03:21.083Z,64.81
2023-03-01T08:04:21.094Z,62.46
2023-03-01T08:05:21.099Z,62.55
2023-03-01T08:06:21.061Z,61.45
2023-03-01T08:07:21.063Z,61.28
2023-03-01T08:08:21.059Z,62.43
2023-03-01T08:09:21.045Z,64.34
2023-03-01T08:10:21.069Z,63.63
2023-03-01T08:11:21.234Z,60.12
2023-03-01T08:12:21.019Z,62.72
2023-03-01T08:13:21.012Z,60.19
2023-03-01T08:14:21.007Z,61.04
2023-03-01T08:15:21.018Z,64.89
2023-03-01T08:16:21.044Z,64.23
2023-03-01T08:17:20.981Z,63.34
2023-03-01T08:18:20.972Z,62.24
2023-03-01T08:19:20.964Z,65.89
2023-03-01T08:20:21.048Z,63.31
2023-03-01T08:21:20.949Z,64.79
2023-03-01T08:22:20.939Z,61.81
2023-03-01T08:23:20.926Z,64.31
2023-03-01T08:24:21.929Z,62.71
2023-03-01T08:25:21.018Z,63.68
2023-03-01T08:26:20.906Z,66.01
2023-03-01T08:27:20.902Z,63.41
2023-03-01T08:28:20.899Z,64.49
2023-03-01T08:29:20.896Z,64.14
2023-03-01T08:30:20.908Z,58.48
2023-03-01T08:31:20.918Z,64.74
2023-03-01T08:32:20.998Z,65.32
2023-03-01T08:33:20.915Z,65.12
2023-03-01T08:34:20.848Z,64.15
2023-03-01T08:35:20.875Z,70.55
2023-03-01T08:36:20.860Z,64.51
2023-03-01T08:37:20.824Z,67.59
2023-03-01T08:38:20.818Z,63.50
2023-03-01T08:39:20.856Z,62.48
2023-03-01T08:40:20.823Z,63.87
2023-03-01T08:41:20.794Z,64.47
2023-03-01T08:42:20.800Z,69.22
2023-03-01T08:43:22.443Z,64.90
2023-03-01T08:44:20.778Z,53.19
2023-03-01T08:45:20.794Z,64.25
2023-03-01T08:46:20.754Z,66.86
2023-03-01T08:47:20.747Z,67.65
2023-03-01T08:48:20.750Z,63.83
2023-03-01T08:49:20.753Z,61.29
2023-03-01T08:50:20.760Z,64.67
2023-03-01T08:51:20.723Z,64.29
2023-03-01T08:52:20.708Z,64.30
2023-03-01T08:53:20.705Z,65.72
2023-03-01T08:54:20.690Z,63.77
2023-03-01T08:55:20.712Z,64.50
2023-03-01T08:56:20.707Z,62.28
2023-03-01T08:57:20.674Z,63.73
2023-03-01T08:58:20.669Z,65.08
2023-03-01T08:59:20.661Z,65.00
2023-03-01T09:00:20.681Z,61.47
2023-03-01T09:01:20.642Z,59.99
2023-03-01T09:02:20.674Z,63.94
2023-03-01T09:03:20.651Z,62.54
2023-03-01T09:04:20.619Z,66.39
2023-03-01T09:05:20.642Z,64.69
2023-03-01T09:06:20.624Z,63.41
2023-03-01T09:07:20.604Z,63.09
2023-03-01T09:08:20.603Z,65.27
2023-03-01T09:09:20.619Z,62.87
2023-03-01T09:10:20.611Z,63.37
2023-03-01T09:11:20.577Z,63.95
2023-03-01T09:12:20.561Z,65.61
2023-03-01T09:13:20.551Z,63.41
2023-03-01T09:14:20.543Z,64.88
2023-03-01T09:15:21.562Z,63.76
2023-03-01T09:16:20.584Z,65.79
2023-03-01T09:17:20.529Z,65.85
2023-03-01T09:18:20.521Z,63.43
2023-03-01T09:19:20.516Z,65.39
2023-03-01T09:20:20.557Z,64.04
2023-03-01T09:21:27.504Z,64.98
2023-03-01T09:22:22.496Z,63.53
2023-03-01T09:23:20.482Z,59.76
2023-03-01T09:24:20.468Z,66.70
2023-03-01T09:25:20.495Z,61.95
2023-03-01T09:26:20.456Z,65.35
2023-03-01T09:27:20.449Z,64.92
2023-03-01T09:28:29.474Z,62.72
2023-03-01T09:29:22.430Z,62.08
2023-03-01T09:30:20.444Z,62.46
2023-03-01T09:31:20.489Z,66.31
2023-03-01T09:32:20.430Z,65.49
2023-03-01T09:33:20.577Z,64.38
2023-03-01T09:34:20.401Z,64.62
2023-03-01T09:35:20.404Z,65.29
2023-03-01T09:36:20.374Z,65.85
2023-03-01T09:37:20.370Z,69.73
2023-03-01T09:38:20.373Z,64.59
2023-03-01T09:39:20.352Z,63.17
2023-03-01T09:40:20.352Z,66.13
2023-03-01T09:41:20.353Z,68.79
2023-03-01T09:42:20.327Z,64.12
2023-03-01T09:43:20.319Z,65.59
2023-03-01T09:44:20.306Z,63.96
2023-03-01T09:45:20.323Z,64.01
2023-03-01T09:46:20.309Z,62.72
2023-03-01T09:47:20.287Z,62.08
2023-03-01T09:48:20.299Z,67.76
2023-03-01T09:49:20.607Z,66.30
2023-03-01T09:50:21.296Z,65.05
2023-03-01T09:51:20.255Z,64.16
2023-03-01T09:52:20.289Z,67.82
2023-03-01T09:53:20.247Z,61.71
2023-03-01T09:54:20.251Z,65.31
2023-03-01T09:55:20.227Z,66.71
2023-03-01T09:56:20.270Z,63.91
2023-03-01T09:57:20.212Z,63.94
2023-03-01T09:58:20.204Z,66.23
2023-03-01T09:59:22.242Z,64.47
2023-03-01T10:00:20.213Z,71.44
2023-03-01T10:01:20.205Z,68.98
2023-03-01T10:02:20.175Z,62.74
2023-03-01T10:03:20.202Z,66.35
2023-03-01T10:04:20.279Z,66.37
2023-03-01T10:05:20.169Z,67.52
2023-03-01T10:06:33.969Z,65.34
2023-03-01T10:07:22.144Z,65.28
2023-03-01T10:08:20.134Z,66.95
2023-03-01T10:09:20.119Z,65.99
2023-03-01T10:10:20.114Z,63.32
2023-03-01T10:11:21.336Z,64.93
2023-03-01T10:12:21.100Z,65.41
2023-03-01T10:13:20.095Z,64.96
2023-03-01T10:14:20.088Z,64.87
2023-03-01T10:15:20.075Z,63.93
2023-03-01T10:16:20.099Z,67.39
2023-03-01T10:17:20.438Z,62.16
2023-03-01T10:18:21.048Z,65.34
2023-03-01T10:19:20.045Z,64.53
2023-03-01T10:20:20.037Z,69.17
2023-03-01T10:21:20.055Z,66.34
2023-03-01T10:22:20.017Z,65.95
2023-03-01T10:23:20.011Z,64.76
2023-03-01T10:24:20.017Z,66.41
2023-03-01T10:25:20.002Z,65.09
2023-03-01T10:26:20.016Z,62.13
2023-03-01T10:27:19.990Z,62.97
2023-03-01T10:28:20.074Z,64.03
2023-03-01T10:29:19.973Z,65.15
2023-03-01T10:30:19.952Z,65.53
2023-03-01T10:31:20.032Z,65.40
2023-03-01T10:32:20.005Z,65.91
2023-03-01T10:33:19.937Z,65.20
2023-03-01T10:34:19.928Z,62.77
2023-03-01T10:35:19.933Z,64.38
2023-03-01T10:36:19.955Z,61.97
2023-03-01T10:37:19.907Z,65.04
2023-03-01T10:38:19.903Z,68.38
2023-03-01T10:39:19.890Z,59.56
2023-03-01T10:40:19.892Z,63.37
2023-03-01T10:41:19.912Z,70.02
2023-03-01T10:42:19.889Z,63.42
2023-03-01T10:43:19.855Z,66.72
2023-03-01T10:44:19.869Z,66.30
2023-03-01T10:45:19.849Z,67.96
2023-03-01T10:46:20.006Z,64.04
2023-03-01T10:47:19.833Z,64.62
2023-03-01T10:48:19.826Z,61.80
2023-03-01T10:49:19.822Z,66.21
2023-03-01T10:50:19.817Z,66.99
2023-03-01T10:51:19.832Z,62.03
2023-03-01T10:52:19.801Z,65.90
2023-03-01T10:53:19.791Z,66.97
2023-03-01T10:54:19.780Z,70.13
2023-03-01T10:55:19.781Z,61.10
2023-03-01T10:56:19.802Z,61.08
2023-03-01T10:57:19.789Z,63.27
2023-03-01T10:58:19.749Z,61.46
2023-03-01T10:59:19.755Z,66.30
2023-03-01T11:00:19.756Z,65.60
2023-03-01T11:01:19.795Z,65.71
2023-03-01T11:02:25.474Z,62.47
2023-03-01T11:03:22.720Z,63.74
2023-03-01T11:04:20.714Z,62.23
2023-03-01T11:05:19.693Z,65.95
2023-03-01T11:06:19.700Z,65.65
2023-03-01T11:07:19.711Z,64.73
2023-03-01T11:08:19.675Z,63.84
2023-03-01T11:09:19.677Z,65.32
2023-03-01T11:10:19.660Z,63.69
2023-03-01T11:11:19.656Z,61.93
2023-03-01T11:12:19.734Z,66.33
2023-03-01T11:13:19.675Z,66.99
2023-03-01T11:14:26.955Z,66.50
2023-03-01T11:15:21.614Z,65.78
2023-03-01T11:16:19.652Z,63.09
2023-03-01T11:17:19.635Z,65.06
2023-03-01T11:18:19.603Z,65.78
2023-03-01T11:19:19.593Z,64.88
2023-03-01T11:20:19.594Z,63.86
2023-03-01T11:21:19.575Z,63.58
2023-03-01T11:22:19.679Z,64.97
2023-03-01T11:23:19.555Z,69.44
2023-03-01T11:24:19.550Z,64.81
2023-03-01T11:25:19.537Z,63.50
2023-03-01T11:26:19.532Z,65.53
2023-03-01T11:27:19.564Z,64.97
2023-03-01T11:28:19.519Z,65.36
2023-03-01T11:29:19.512Z,66.87
2023-03-01T11:30:19.498Z,64.85
2023-03-01T11:31:19.551Z,66.42
2023-03-01T11:32:19.632Z,63.63
2023-03-01T11:33:19.478Z,66.04
2023-03-01T11:34:19.471Z,64.76
2023-03-01T11:35:19.462Z,63.81
2023-03-01T11:36:19.464Z,64.51
2023-03-01T11:37:20.482Z,63.80
2023-03-01T11:38:19.438Z,67.11
2023-03-01T11:39:19.432Z,63.05
2023-03-01T11:40:19.428Z,64.16
2023-03-01T11:41:19.446Z,64.50
2023-03-01T11:42:19.750Z,69.00
2023-03-01T11:43:19.420Z,65.19
2023-03-01T11:44:19.398Z,64.84
2023-03-01T11:45:19.384Z,65.41
2023-03-01T11:46:19.416Z,61.95
2023-03-01T11:47:19.491Z,65.87
2023-03-01T11:48:19.381Z,65.69
2023-03-01T11:49:19.363Z,63.02
2023-03-01T11:50:19.345Z,62.50
2023-03-01T11:51:19.340Z,60.89
2023-03-01T11:52:19.354Z,65.78
2023-03-01T11:53:19.323Z,64.27
2023-03-01T11:54:19.318Z,68.61
2023-03-01T11:55:19.334Z,65.94
2023-03-01T11:56:19.307Z,62.77
2023-03-01T11:57:19.316Z,64.75
2023-03-01T11:58:19.283Z,63.38
2023-03-01T11:59:19.285Z,64.91
2023-03-01T12:00:19.273Z,66.07
2023-03-01T12:01:19.266Z,61.78
2023-03-01T12:02:19.340Z,64.54
2023-03-01T12:03:19.250Z,64.57
2023-03-01T12:04:19.327Z,65.86
2023-03-01T12:05:20.232Z,64.61
2023-03-01T12:06:19.232Z,66.70
2023-03-01T12:07:19.254Z,65.37
2023-03-01T12:08:19.230Z,64.46
2023-03-01T12:09:19.205Z,62.60
2023-03-01T12:10:19.198Z,64.03
2023-03-01T12:11:19.178Z,64.14
2023-03-01T12:12:20.209Z,65.69
2023-03-01T12:13:19.179Z,63.78
2023-03-01T12:14:19.168Z,66.17
2023-03-01T12:15:19.158Z,62.55
2023-03-01T12:16:28.780Z,64.25
2023-03-01T12:17:21.224Z,66.12
2023-03-01T12:18:19.133Z,63.13
2023-03-01T12:19:19.212Z,64.81
2023-03-01T12:20:19.111Z,65.74
2023-03-01T12:21:19.122Z,65.12
2023-03-01T12:22:19.112Z,61.33
2023-03-01T12:23:21.002Z,66.52
2023-03-01T12:24:20.104Z,64.09
2023-03-01T12:25:19.089Z,63.60
2023-03-01T12:26:19.089Z,65.06
2023-03-01T12:27:19.075Z,62.56
2023-03-01T12:28:19.082Z,65.70
2023-03-01T12:29:19.057Z,67.01
2023-03-01T12:30:19.046Z,64.80
2023-03-01T12:31:19.065Z,66.72
2023-03-01T12:32:19.184Z,63.31
2023-03-01T12:33:20.050Z,66.23
2023-03-01T12:34:19.021Z,67.01
2023-03-01T12:35:19.012Z,66.44
2023-03-01T12:36:19.009Z,65.41
2023-03-01T12:37:19.011Z,66.47
2023-03-01T12:38:19.017Z,66.97
2023-03-01T12:39:20.345Z,64.90
2023-03-01T12:40:19.968Z,62.84
2023-03-01T12:41:18.970Z,66.99
2023-03-01T12:42:18.964Z,65.01
2023-03-01T12:43:18.969Z,66.20
2023-03-01T12:44:18.938Z,64.77
2023-03-01T12:45:18.933Z,66.40
2023-03-01T12:46:18.928Z,65.57
2023-03-01T12:47:18.916Z,65.67
2023-03-01T12:48:18.937Z,64.85
2023-03-01T12:49:18.906Z,62.32
2023-03-01T12:50:18.895Z,66.03
2023-03-01T12:51:18.890Z,64.58
2023-03-01T12:52:18.907Z,64.88